首页
METAR-TAF:

METAR-TAF

机场 :

Culdrose, 英格兰

纬度: 50-05N, 经度: 005-15W, 海拔: 78米

当前天气观测

该预报发布于1小时和4分钟前的19:50 UTC
风速7节,风向
温度 9°C
湿度 71%
气压 1018 hPa
能见度10公里或以上

METAR: EGDR 261950Z AUTO 36007KT 9999 // FEW039/// 09/04 Q1018

时间: 21:54 (20:54 UTC)

预报

该预报发布于34小时和25分钟前的10:29 UTC
预报有效从25日的 12点(UTC)到 25日的 21点(UTC)
风速18节,风向北转西北,有时为30节阵风
能见度10公里或以上
少量云层高于2200英尺
短暂存在
从 25日的 12点(UTC)到 25日的 18点(UTC)
能見度: 7000
少量云层高于1000英尺
散云层高于2200英尺
小阵雨

TAF: EGDR 251029Z 2512/2521 33018G30KT 9999 FEW022 TEMPO 2512/2518 7000 -SHRA FEW010 SCT022

超过4000个机场的气象观测和天气预报(METAR&TAF报告)。

可查询的气象台以黄色和红色小点在地图上表示。

将鼠标移到小点上方,可查看气象台名称。

然后点击查看天气观测和预报。

如需切换地图:点击带黑十字的绿色按钮放大地图;点击带横线的绿色按钮缩小地图;或者点击绿色箭头查看邻近地区的地图。


METAR-TAF: